createdAt,value
2023-03-24T00:01:16.887Z,12.197563902311959
2023-03-24T00:04:17.972Z,12.200775355620227
2023-03-24T00:07:16.753Z,12.167376246771255
2023-03-24T00:11:18.723Z,12.131407989454692
2023-03-24T00:14:16.693Z,12.117919896637613
2023-03-24T00:17:17.664Z,12.094797456474044
2023-03-24T00:21:16.435Z,11.999738597719988
2023-03-24T00:24:16.814Z,11.94385945020922
2023-03-24T00:27:17.692Z,11.952851494611332
2023-03-24T00:31:17.476Z,11.935509695491055
2023-03-24T00:34:19.590Z,11.8513699023767
2023-03-24T00:37:16.885Z,11.893760933428075
2023-03-24T00:41:20.466Z,11.864857955562547
2023-03-24T00:44:18.292Z,11.803198300226722
2023-03-24T00:47:17.908Z,11.763376461762528
2023-03-24T00:51:16.462Z,11.751815286127748
2023-03-24T00:54:21.968Z,11.667675663389037
2023-03-24T00:57:21.805Z,11.61886187222708
2023-03-24T01:01:16.833Z,11.629138457657337
2023-03-24T01:04:16.620Z,11.59445498649593
2023-03-24T01:07:18.712Z,11.56234067316991
2023-03-24T01:11:16.722Z,11.497469794928111
2023-03-24T01:14:16.824Z,11.462786374107235
2023-03-24T01:17:16.657Z,11.471778370824541
2023-03-24T01:21:16.101Z,11.462786374107235
2023-03-24T01:24:16.948Z,11.387639007819326
2023-03-24T01:27:16.371Z,11.40369613213843
2023-03-24T01:31:16.209Z,11.417184118762908
2023-03-24T01:34:16.658Z,11.388923577660261
2023-03-24T01:37:16.859Z,11.37543559523765
2023-03-24T01:41:16.438Z,11.327264245813513
2023-03-24T01:44:27.711Z,11.386354437996578
2023-03-24T01:47:17.571Z,11.310564850650644
2023-03-24T01:51:20.170Z,11.279092921968914
2023-03-24T01:54:21.242Z,11.232848475143328
2023-03-24T01:57:20.978Z,11.194953737679407
2023-03-24T02:01:18.348Z,11.146782484093274
2023-03-24T02:04:16.481Z,11.114026046265735
2023-03-24T02:07:30.780Z,11.123660291457782
2023-03-24T02:11:16.099Z,11.051082336190394
2023-03-24T02:14:16.754Z,11.066497118293137
2023-03-24T02:17:31.898Z,10.974650746956467
2023-03-24T02:21:46.567Z,11.02796016794755
2023-03-24T02:24:53.224Z,10.948959470918634
2023-03-24T02:27:34.768Z,10.991992362395195
2023-03-24T02:31:33.019Z,10.927764173664855
2023-03-24T02:34:39.167Z,10.826283728157524
2023-03-24T02:38:23.807Z,10.823072323507223
2023-03-24T02:41:23.245Z,10.845552158446754
2023-03-24T02:44:22.427Z,10.853259531708408
2023-03-24T02:47:24.002Z,10.778754950942766
2023-03-24T02:51:22.650Z,10.719665154535415
2023-03-24T02:54:21.347Z,10.66314451572698
2023-03-24T02:57:23.299Z,10.650298920909062
2023-03-24T03:01:24.412Z,10.57515222766997
2023-03-24T03:04:19.888Z,10.544965112014415
2023-03-24T03:07:20.372Z,10.54175371732308
2023-03-24T03:11:16.983Z,10.53276181279216
2023-03-24T03:14:21.328Z,10.49486736777626
2023-03-24T03:17:19.216Z,10.381184127707092
2023-03-24T03:21:19.710Z,10.354850742138023
2023-03-24T03:24:19.881Z,10.350354799024354
2023-03-24T03:27:20.103Z,10.282915679058442
2023-03-24T03:31:21.839Z,10.27456607721724
2023-03-24T03:34:26.855Z,10.215476609228427
2023-03-24T03:37:24.806Z,10.23731401682744
2023-03-24T03:41:17.524Z,10.255940045110128
2023-03-24T03:44:16.489Z,10.215476609228427
2023-03-24T03:47:16.642Z,10.14289938056545
2023-03-24T03:51:16.703Z,10.14289938056545
2023-03-24T03:54:18.422Z,10.103078270924835
2023-03-24T03:57:18.158Z,10.097940064502563
2023-03-24T04:01:20.528Z,10.058118974597983
2023-03-24T04:05:03.174Z,10.022151553579988
2023-03-24T04:07:25.067Z,10.01829790217389
2023-03-24T04:11:40.888Z,9.997102822366651
2023-03-24T04:21:30.757Z,9.880208834825316
2023-03-24T04:24:28.783Z,9.875070641026833
2023-03-24T04:27:26.870Z,9.854517868743278
2023-03-24T04:31:25.381Z,9.834607375034192
2023-03-24T04:34:21.219Z,9.842314662403169
2023-03-24T04:37:22.290Z,9.794144127090476
2023-03-24T04:41:20.135Z,9.792859579832292
2023-03-24T04:44:17.939Z,9.765884091612316
2023-03-24T04:47:18.867Z,9.720924962405116
2023-03-24T04:51:18.651Z,9.731843606021084
2023-03-24T04:54:16.926Z,9.693949495576453
2023-03-24T04:57:16.621Z,9.614307687932524
2023-03-24T05:01:17.462Z,9.604673603038918
2023-03-24T05:04:18.660Z,9.605315875333327
2023-03-24T05:07:17.655Z,9.616234505034026
2023-03-24T05:11:18.532Z,9.649632674629629
2023-03-24T05:14:17.070Z,9.638714040908962
2023-03-24T05:17:16.686Z,9.620730411763361
2023-03-24T05:21:16.327Z,9.668258582245107
2023-03-24T05:24:16.557Z,9.654770855658807
2023-03-24T05:27:16.672Z,9.663762673160182
2023-03-24T05:31:16.685Z,9.662478127748273
2023-03-24T05:34:16.655Z,9.677250401083437
2023-03-24T05:37:18.217Z,9.634218133288323
2023-03-24T05:41:16.690Z,9.668900854989715
2023-03-24T05:44:17.497Z,9.681746310836843
2023-03-24T05:47:17.770Z,9.67853494670453
2023-03-24T05:51:15.977Z,9.618803594566362
2023-03-24T05:54:17.408Z,9.616876777410289
2023-03-24T05:57:16.997Z,9.597608608100563
2023-03-24T06:01:18.683Z,9.659266764298081
2023-03-24T06:04:16.827Z,9.580267259221092
2023-03-24T06:07:17.436Z,9.615592232662312
2023-03-24T06:11:16.432Z,9.645779039048739
2023-03-24T06:14:16.214Z,9.64706358422418
2023-03-24T06:17:16.185Z,9.621372684171456
2023-03-24T06:21:18.900Z,9.648348129417808
2023-03-24T06:24:16.679Z,9.653486310374229
2023-03-24T06:27:18.589Z,9.654770855658807
2023-03-24T06:31:19.149Z,9.699729952078723
2023-03-24T06:34:16.682Z,9.792217306210024
2023-03-24T06:37:16.822Z,9.792859579832292
2023-03-24T06:41:16.888Z,9.796070948011856
2023-03-24T07:01:16.772Z,10.192996930426398
2023-03-24T07:04:17.599Z,10.275208354254664
2023-03-24T07:07:44.864Z,10.35549301974388
2023-03-24T07:11:16.853Z,10.480094961295617
2023-03-24T07:14:16.596Z,10.537257764946208
2023-03-24T07:17:16.533Z,10.646445242818391
2023-03-24T07:21:17.065Z,10.776828109148482
2023-03-24T07:24:16.870Z,10.858397780913311
2023-03-24T07:27:16.845Z,10.965658799515586
2023-03-24T07:31:16.857Z,11.09026157916669
2023-03-24T07:34:16.845Z,11.215506813661431
2023-03-24T07:37:16.822Z,11.315060841353624
2023-03-24T07:41:16.316Z,11.486550938795062
2023-03-24T07:44:16.752Z,11.593812700117997
2023-03-24T07:47:16.640Z,11.724196928075344
2023-03-24T07:51:18.229Z,11.844947020612107
2023-03-24T07:54:17.272Z,11.966981851901163
2023-03-24T07:57:17.097Z,12.071032732447293
2023-03-24T08:11:16.836Z,12.606703969155296
2023-03-24T08:14:16.896Z,12.704332640835583
2023-03-24T08:17:17.021Z,12.800676827730877
2023-03-24T08:21:16.902Z,12.944551003979086
2023-03-24T08:24:17.706Z,13.00685373145534
2023-03-24T08:27:17.581Z,13.090994596268228
2023-03-24T08:31:15.690Z,13.16614337356441
2023-03-24T08:34:16.025Z,13.30809123385634
2023-03-24T08:37:16.061Z,13.403793762752684
2023-03-24T08:41:16.587Z,13.502065592115922
2023-03-24T08:44:16.257Z,13.59905292677613
2023-03-24T08:47:16.116Z,13.686405846741764
2023-03-24T08:51:17.062Z,13.770547341825386
2023-03-24T08:54:16.701Z,13.83413524102798
2023-03-24T08:57:17.443Z,13.924699901684017
2023-03-24T09:01:17.199Z,14.00177627983876
2023-03-24T09:04:16.856Z,14.09234110784637
2023-03-24T09:07:17.280Z,14.168775323819228
2023-03-24T09:11:18.075Z,14.268332592450315
2023-03-24T09:14:16.046Z,14.345409262552858
2023-03-24T09:17:16.801Z,14.495066650681201
2023-03-24T09:21:17.143Z,14.566362746438244
2023-03-24T09:24:17.328Z,14.714093573633363
2023-03-24T09:27:17.928Z,14.773828280756515
2023-03-24T09:31:16.707Z,14.94725184686622
2023-03-24T09:34:16.894Z,15.059656187152722
2023-03-24T09:37:16.851Z,15.146368201958193
2023-03-24T09:41:17.968Z,15.317865541956053
2023-03-24T09:44:25.996Z,15.432197282057313
2023-03-24T09:47:26.076Z,15.561944712209879
2023-03-24T09:51:21.632Z,15.741792942057145
2023-03-24T09:54:26.290Z,15.870898498310362
2023-03-24T09:57:21.072Z,16.014135225955762
2023-03-24T10:01:17.099Z,16.231238858640427
2023-03-24T10:04:19.477Z,16.414300017723964
2023-03-24T10:07:23.924Z,16.57616492923635
2023-03-24T10:11:24.823Z,16.819605161344224
2023-03-24T10:14:26.696Z,17.00009820894784
2023-03-24T10:17:28.233Z,17.169672075478683
2023-03-24T10:21:19.887Z,17.352735128061976
2023-03-24T10:24:23.712Z,17.477989008440726
2023-03-24T10:27:24.062Z,17.661052683118395
2023-03-24T10:31:19.211Z,17.873663940823555
2023-03-24T10:34:34.969Z,17.988641233375528
2023-03-24T10:37:16.599Z,18.176844602113214
2023-03-24T10:41:19.274Z,18.372756373355877
2023-03-24T10:44:17.726Z,18.523705075801352
2023-03-24T10:47:21.999Z,18.69071244347733
2023-03-24T10:51:19.269Z,18.900114423467404
2023-03-24T10:54:19.496Z,19.077399913146746
2023-03-24T10:57:18.068Z,19.12429069841746
2023-03-24T11:01:25.298Z,19.235415532879507
2023-03-24T11:04:19.699Z,19.41462870293908
2023-03-24T11:07:18.924Z,19.449315163836946
2023-03-24T11:11:30.159Z,19.565579138745033
2023-03-24T11:14:22.314Z,19.634309845912867
2023-03-24T11:17:21.228Z,19.740938896522856
2023-03-24T11:21:15.945Z,19.821874283653234
2023-03-24T11:24:18.649Z,19.8976709815106
2023-03-24T11:27:18.641Z,19.97539477981345
2023-03-24T11:31:23.205Z,20.152040023566222
2023-03-24T11:34:20.417Z,20.273443681397566
2023-03-24T11:37:18.637Z,20.307488122544964
2023-03-24T11:41:21.123Z,20.46165178951669
2023-03-24T11:44:20.787Z,20.54644191800071
2023-03-24T11:47:22.831Z,20.698678938442118
2023-03-24T11:51:26.204Z,20.86825971764201
2023-03-24T11:54:20.208Z,20.922859657183288
2023-03-24T11:57:25.848Z,21.042979639825443
2023-03-24T12:01:26.204Z,21.156676240476372
2023-03-24T12:04:28.391Z,21.272300048265606
2023-03-24T12:07:46.786Z,21.408479388618435
2023-03-24T12:11:23.034Z,21.45215959768393
2023-03-24T12:14:25.536Z,21.506117532031205
2023-03-24T12:17:21.264Z,21.585769779473775
2023-03-24T12:21:32.792Z,21.654502016934657
2023-03-24T12:24:32.127Z,21.783615986946096
2023-03-24T12:27:24.817Z,21.764987591871705
2023-03-24T12:31:39.091Z,21.979535546078203
2023-03-24T12:34:38.818Z,22.02642783116935
2023-03-24T12:37:30.173Z,22.079743746398254
2023-03-24T12:41:44.615Z,22.177382612131716
2023-03-24T12:45:19.103Z,22.290438272133997
2023-03-24T12:47:32.431Z,22.269240325153806
2023-03-24T12:51:25.272Z,22.239691680050235
2023-03-24T12:54:28.432Z,22.306497326173485
2023-03-24T12:57:17.634Z,22.42148023612399
2023-03-24T13:01:24.233Z,22.443962945044042
2023-03-24T13:04:21.764Z,22.569866217942035
2023-03-24T13:07:22.532Z,22.66557851677144
2023-03-24T13:11:32.785Z,22.69833912546892
2023-03-24T13:14:21.840Z,22.700908585474828
2023-03-24T13:17:21.647Z,22.804329411114395
2023-03-24T13:21:23.104Z,22.828096946707593
2023-03-24T13:24:24.731Z,22.81460726357991
2023-03-24T13:27:25.833Z,22.7683569366528
2023-03-24T13:31:18.612Z,22.75101307013283
2023-03-24T13:34:25.461Z,22.806898874121636
2023-03-24T13:37:19.743Z,22.771568764149926
2023-03-24T13:41:18.929Z,22.785700806487874
2023-03-24T13:44:21.358Z,22.79340919414535
2023-03-24T13:47:17.616Z,22.80561414260892
2023-03-24T13:51:21.090Z,22.799190485318196
2023-03-24T13:54:19.842Z,22.754867262406332
2023-03-24T13:57:19.462Z,22.5775745872641
2023-03-24T14:01:32.478Z,22.672644529411627
2023-03-24T14:04:44.513Z,22.68677655634274
2023-03-24T14:07:31.538Z,22.723391363630164
2023-03-24T14:12:20.816Z,22.63667210715503
2023-03-24T14:14:19.729Z,22.611619892936233
2023-03-24T14:17:16.608Z,22.69384257063366
2023-03-24T14:21:28.686Z,22.585925321435298
2023-03-24T14:24:24.112Z,22.596845513434165
2023-03-24T14:27:35.141Z,22.672644529411627
2023-03-24T14:31:21.039Z,22.686134191434483
2023-03-24T14:34:21.766Z,22.693200205675385
2023-03-24T14:37:16.998Z,22.703478045553492
2023-03-24T14:41:26.926Z,22.727887919929707
2023-03-24T14:44:52.172Z,22.73752339846478
2023-03-24T14:47:19.275Z,22.77349586070277
2023-03-24T14:51:32.094Z,22.786343172100988
2023-03-24T14:54:22.792Z,22.740735224870512
2023-03-24T14:57:20.616Z,22.797263388219655
2023-03-24T15:01:17.461Z,22.806256508363003
2023-03-24T15:04:16.775Z,22.862142346376004
2023-03-24T15:07:16.952Z,22.870493106736102
2023-03-24T15:11:20.957Z,22.85443395287957
2023-03-24T15:14:22.491Z,22.826169848995143
2023-03-24T15:17:21.935Z,22.859572881804432
2023-03-24T15:21:23.480Z,22.828096946707593
2023-03-24T15:24:31.364Z,22.774780591760738
2023-03-24T15:27:21.525Z,22.721464268141425
2023-03-24T15:31:15.631Z,22.648234669896556
2023-03-24T15:34:27.083Z,22.666220881534173
2023-03-24T15:37:22.111Z,22.585282957241
2023-03-24T15:41:19.589Z,22.548025841752313
2023-03-24T15:44:19.034Z,22.447174761058797
2023-03-24T15:47:21.256Z,22.29236535846867
2023-03-24T15:51:16.112Z,22.307782050619426
2023-03-24T15:54:23.557Z,22.27759103094877
2023-03-24T15:57:19.063Z,22.217209021743564
2023-03-24T16:01:20.215Z,22.21142776765082
2023-03-24T16:04:18.591Z,22.03285143375397
2023-03-24T16:07:24.184Z,21.99302510505986
2023-03-24T16:11:16.864Z,21.924934970686444
2023-03-24T16:14:21.796Z,21.87611566051055
2023-03-24T16:17:16.392Z,21.774622968156837
2023-03-24T16:21:18.141Z,21.689831691963263
2023-03-24T16:24:16.524Z,21.61146406775806
2023-03-24T16:27:16.542Z,21.564571997116673
2023-03-24T16:31:22.891Z,21.416187659278513
2023-03-24T16:34:21.240Z,21.287716567103054
2023-03-24T16:37:16.857Z,21.124558542238447
2023-03-24T16:41:16.179Z,20.973605512803715
2023-03-24T16:44:17.549Z,20.818156272618307
2023-03-24T16:47:16.395Z,20.68133546752506
2023-03-24T16:51:16.393Z,20.619669820001583
2023-03-24T16:54:16.184Z,20.522032630466857
2023-03-24T16:57:16.537Z,20.30427638226838
2023-03-24T17:01:29.078Z,20.197646669628103
2023-03-24T17:04:18.593Z,20.045410489832648
2023-03-24T17:07:16.453Z,19.87647359352859
2023-03-24T17:11:24.488Z,19.694047792565197
2023-03-24T17:14:17.939Z,19.526396235530047
2023-03-24T17:17:17.205Z,19.40306655225322
2023-03-24T17:21:17.634Z,19.32534324421804
2023-03-24T17:24:16.699Z,19.131356435285216
2023-03-24T17:27:17.868Z,19.04720996833057
2023-03-24T17:31:16.781Z,18.964990595082053
2023-03-24T17:34:21.535Z,18.82881492203014
2023-03-24T17:37:16.837Z,18.751092105913358
2023-03-24T17:41:16.658Z,18.609135729322226
2023-03-24T17:44:17.149Z,18.48773429838411
2023-03-24T17:47:17.502Z,18.403588428339937
2023-03-24T17:51:16.785Z,18.332289317089543
2023-03-24T17:54:16.873Z,18.24364725690839
2023-03-24T17:57:16.995Z,18.135735300532634
2023-03-24T18:01:18.299Z,18.040670111968304
2023-03-24T18:04:17.458Z,17.90321116410496
2023-03-24T18:07:16.710Z,17.828700793423288
2023-03-24T18:11:16.725Z,17.76061378406457
2023-03-24T18:14:16.900Z,17.637286500980643
2023-03-24T18:17:17.273Z,17.56727264924557
2023-03-24T18:21:15.881Z,17.47541969633685
2023-03-24T18:24:16.224Z,17.445230284566424
2023-03-24T18:27:16.230Z,17.328969026687354
2023-03-24T18:31:19.006Z,17.27180194347311
2023-03-24T18:34:16.986Z,17.207569308677922
2023-03-24T18:37:16.780Z,17.114432068999395
2023-03-24T18:41:16.883Z,17.057265120963347
2023-03-24T18:44:16.531Z,16.974405226516048
2023-03-24T18:47:18.216Z,16.909530478256055
2023-03-24T18:51:16.221Z,16.81125495786773
2023-03-24T18:54:16.872Z,16.78941596779341
2023-03-24T18:57:17.079Z,16.715548834443688
2023-03-24T19:01:18.155Z,16.673155550291995
2023-03-24T19:04:17.295Z,16.534414031566122
2023-03-24T19:07:24.732Z,16.57102635617857
2023-03-24T19:11:17.147Z,16.484955300725506
2023-03-24T19:14:17.230Z,16.3853955996281
2023-03-24T19:17:17.149Z,16.405949851550396
2023-03-24T19:21:17.872Z,16.39117648251058
2023-03-24T19:24:16.548Z,16.259500908212793
2023-03-24T19:27:16.573Z,16.143883488350546
2023-03-24T19:31:19.354Z,16.066805290296905
2023-03-24T19:34:18.093Z,16.019916085182285
2023-03-24T19:37:17.818Z,15.903014336858996
2023-03-24T19:41:16.177Z,15.876679348410107
2023-03-24T19:44:16.452Z,15.835571089037694
2023-03-24T19:47:16.514Z,15.791251267767894
2023-03-24T19:51:16.626Z,15.65829193386162
2023-03-24T19:54:16.916Z,15.565156284616478
2023-03-24T19:57:17.505Z,15.500924858085
2023-03-24T20:01:16.529Z,15.497070973939207
2023-03-24T20:04:17.113Z,15.395585417017083
2023-03-24T20:07:17.276Z,15.35511968863575
2023-03-24T20:11:16.502Z,15.297953849141868
2023-03-24T20:14:17.300Z,15.285749910544837
2023-03-24T20:17:19.188Z,15.178483784029321
2023-03-24T20:21:20.970Z,15.208672441542149
2023-03-24T20:24:17.371Z,15.118748810469697
2023-03-24T20:27:16.853Z,15.038459929472538
2023-03-24T20:31:16.847Z,15.051306145657236
2023-03-24T20:34:18.153Z,15.029467579225548
2023-03-24T20:37:17.876Z,14.96973270378221
2023-03-24T20:41:19.893Z,14.884305477137332
2023-03-24T20:44:17.532Z,14.822001460311366
2023-03-24T20:47:17.924Z,14.812366822354033
2023-03-24T20:51:17.140Z,14.732720521096871
2023-03-24T20:54:18.791Z,14.68904354686756
2023-03-24T20:57:18.403Z,14.594624277380353
2023-03-24T21:01:21.841Z,14.486074354294487
2023-03-24T21:04:17.647Z,14.406428339491777
2023-03-24T21:07:19.170Z,14.310724752903116
2023-03-24T21:11:16.799Z,14.30622861373422
2023-03-24T21:14:18.052Z,14.195752121302302
2023-03-24T21:17:20.941Z,14.161709973423058
2023-03-24T21:21:16.161Z,14.126383229695875
2023-03-24T21:24:17.466Z,14.037745278720923
2023-03-24T21:27:17.686Z,13.973514933578645
2023-03-24T21:31:18.820Z,13.964522688887609
2023-03-24T21:34:16.665Z,13.885519434559683
2023-03-24T21:37:19.881Z,13.843127472795095
2023-03-24T21:41:18.007Z,13.82514301015217
2023-03-24T21:44:19.305Z,13.794954813016465
2023-03-24T21:47:19.536Z,13.70824408987537
2023-03-24T21:51:21.231Z,13.714024802173025
2023-03-24T21:54:16.562Z,13.621533449611979
2023-03-24T21:57:17.814Z,13.507846291275929
2023-03-24T22:01:16.221Z,13.459673809530887
2023-03-24T22:04:18.120Z,13.430770332762041
2023-03-24T22:07:18.870Z,13.286253087047317
2023-03-24T22:11:18.956Z,13.317083413482123
2023-03-24T22:14:19.318Z,13.195689063737882
2023-03-24T22:17:16.791Z,13.237438424953234
2023-03-24T22:21:16.368Z,13.184127705567516
2023-03-24T22:24:16.855Z,13.085856220607184
2023-03-24T22:27:18.325Z,13.067229611275616
2023-03-24T22:31:17.349Z,13.010065213412691
2023-03-24T22:34:17.315Z,12.905370960160871
2023-03-24T22:37:17.112Z,12.895736525748452
2023-03-24T22:41:16.491Z,12.819303382333601
2023-03-24T22:44:17.260Z,12.763423729998703
2023-03-24T22:47:16.713Z,12.743512597828886
2023-03-24T22:51:19.710Z,12.658729761382347
2023-03-24T22:54:16.749Z,12.64331470872312
2023-03-24T22:57:18.112Z,12.581012230912256
2023-03-24T23:01:18.520Z,12.62211901559358
2023-03-24T23:04:17.106Z,12.593858099124281
2023-03-24T23:07:17.692Z,12.553393620415955
2023-03-24T23:11:16.242Z,12.495587253570557
2023-03-24T23:14:18.537Z,12.517425210049623
2023-03-24T23:17:16.639Z,12.426861954249125
2023-03-24T23:21:17.053Z,12.414016109683962
2023-03-24T23:24:16.658Z,12.35171378934756
2023-03-24T23:27:16.406Z,12.315103167459256
2023-03-24T23:31:18.463Z,12.361990457796491
2023-03-24T23:34:17.185Z,12.335014205600965
2023-03-24T23:37:18.506Z,12.34143712206278
2023-03-24T23:41:17.996Z,12.284273181539266
2023-03-24T23:44:19.702Z,12.170587699010866
2023-03-24T23:47:16.752Z,12.223255531961332
2023-03-24T23:51:16.692Z,12.166091665907242
2023-03-24T23:54:17.687Z,12.124342797728968
2023-03-24T23:57:17.367Z,12.13718860127592
